sensor_id;sensor_type;location;lat;lon;timestamp;P1;durP1;ratioP1;P2;durP2;ratioP2
51048;SDS011;37084;55.228;36.450;2023-02-01T00:00:06;11.15;;;5.90;;
51048;SDS011;37084;55.228;36.450;2023-02-01T00:03:15;10.50;;;6.43;;
51048;SDS011;37084;55.228;36.450;2023-02-01T00:06:19;13.10;;;6.07;;
51048;SDS011;37084;55.228;36.450;2023-02-01T00:09:20;12.15;;;6.63;;
51048;SDS011;37084;55.228;36.450;2023-02-01T00:12:22;15.32;;;7.22;;
51048;SDS011;37084;55.228;36.450;2023-02-01T00:15:31;13.90;;;6.78;;
51048;SDS011;37084;55.228;36.450;2023-02-01T00:18:34;16.33;;;6.05;;
51048;SDS011;37084;55.228;36.450;2023-02-01T00:21:35;13.13;;;6.78;;
51048;SDS011;37084;55.228;36.450;2023-02-01T00:24:37;13.82;;;6.88;;
51048;SDS011;37084;55.228;36.450;2023-02-01T00:27:38;13.30;;;6.25;;
51048;SDS011;37084;55.228;36.450;2023-02-01T00:30:39;13.68;;;5.97;;
51048;SDS011;37084;55.228;36.450;2023-02-01T00:33:40;14.30;;;6.88;;
51048;SDS011;37084;55.228;36.450;2023-02-01T00:36:42;14.77;;;6.68;;
51048;SDS011;37084;55.228;36.450;2023-02-01T00:39:44;10.13;;;5.63;;
51048;SDS011;37084;55.228;36.450;2023-02-01T00:42:46;14.77;;;6.68;;
51048;SDS011;37084;55.228;36.450;2023-02-01T00:45:47;15.43;;;7.45;;
51048;SDS011;37084;55.228;36.450;2023-02-01T00:48:49;15.38;;;6.80;;
51048;SDS011;37084;55.228;36.450;2023-02-01T00:51:50;12.35;;;6.68;;
51048;SDS011;37084;55.228;36.450;2023-02-01T00:54:53;15.00;;;6.97;;
51048;SDS011;37084;55.228;36.450;2023-02-01T00:57:54;16.40;;;7.57;;
51048;SDS011;37084;55.228;36.450;2023-02-01T01:01:08;16.80;;;7.63;;
51048;SDS011;37084;55.228;36.450;2023-02-01T01:04:11;16.85;;;7.20;;
51048;SDS011;37084;55.228;36.450;2023-02-01T01:07:12;13.73;;;6.80;;
51048;SDS011;37084;55.228;36.450;2023-02-01T01:10:13;14.68;;;7.10;;
51048;SDS011;37084;55.228;36.450;2023-02-01T01:13:14;17.42;;;7.88;;
51048;SDS011;37084;55.228;36.450;2023-02-01T01:16:17;15.15;;;5.57;;
51048;SDS011;37084;55.228;36.450;2023-02-01T01:19:19;15.23;;;6.88;;
51048;SDS011;37084;55.228;36.450;2023-02-01T01:22:20;12.23;;;5.15;;
51048;SDS011;37084;55.228;36.450;2023-02-01T01:25:22;14.15;;;6.40;;
51048;SDS011;37084;55.228;36.450;2023-02-01T01:28:23;17.13;;;7.75;;
51048;SDS011;37084;55.228;36.450;2023-02-01T01:31:24;16.52;;;7.30;;
51048;SDS011;37084;55.228;36.450;2023-02-01T01:34:32;18.75;;;8.25;;
51048;SDS011;37084;55.228;36.450;2023-02-01T01:37:34;17.30;;;7.38;;
51048;SDS011;37084;55.228;36.450;2023-02-01T01:40:36;14.38;;;7.72;;
51048;SDS011;37084;55.228;36.450;2023-02-01T01:47:04;13.85;;;6.38;;
51048;SDS011;37084;55.228;36.450;2023-02-01T01:50:07;14.43;;;6.40;;
51048;SDS011;37084;55.228;36.450;2023-02-01T01:53:10;14.27;;;7.13;;
51048;SDS011;37084;55.228;36.450;2023-02-01T01:56:13;15.50;;;7.22;;
51048;SDS011;37084;55.228;36.450;2023-02-01T01:59:14;16.92;;;7.50;;
51048;SDS011;37084;55.228;36.450;2023-02-01T02:02:16;15.23;;;6.53;;
51048;SDS011;37084;55.228;36.450;2023-02-01T02:05:19;14.20;;;6.00;;
51048;SDS011;37084;55.228;36.450;2023-02-01T02:08:21;15.30;;;6.72;;
51048;SDS011;37084;55.228;36.450;2023-02-01T02:11:23;18.48;;;8.05;;
51048;SDS011;37084;55.228;36.450;2023-02-01T02:14:25;14.13;;;6.07;;
51048;SDS011;37084;55.228;36.450;2023-02-01T02:17:58;13.23;;;7.03;;
51048;SDS011;37084;55.228;36.450;2023-02-01T02:24:58;17.65;;;7.00;;
51048;SDS011;37084;55.228;36.450;2023-02-01T02:38:57;17.52;;;7.25;;
51048;SDS011;37084;55.228;36.450;2023-02-01T02:49:25;15.43;;;7.38;;
51048;SDS011;37084;55.228;36.450;2023-02-01T02:52:45;13.57;;;7.22;;
51048;SDS011;37084;55.228;36.450;2023-02-01T02:56:21;17.00;;;7.05;;
51048;SDS011;37084;55.228;36.450;2023-02-01T02:59:41;16.30;;;7.55;;
51048;SDS011;37084;55.228;36.450;2023-02-01T03:03:04;17.45;;;7.13;;
51048;SDS011;37084;55.228;36.450;2023-02-01T03:06:25;15.23;;;7.35;;
51048;SDS011;37084;55.228;36.450;2023-02-01T03:09:31;12.07;;;5.82;;
51048;SDS011;37084;55.228;36.450;2023-02-01T03:12:35;18.20;;;7.95;;
51048;SDS011;37084;55.228;36.450;2023-02-01T03:16:10;17.33;;;7.82;;
51048;SDS011;37084;55.228;36.450;2023-02-01T03:19:29;15.55;;;7.65;;
51048;SDS011;37084;55.228;36.450;2023-02-01T03:22:35;21.83;;;8.55;;
51048;SDS011;37084;55.228;36.450;2023-02-01T03:25:38;19.98;;;8.82;;
51048;SDS011;37084;55.228;36.450;2023-02-01T03:28:43;17.65;;;8.45;;
51048;SDS011;37084;55.228;36.450;2023-02-01T03:31:47;14.35;;;6.10;;
51048;SDS011;37084;55.228;36.450;2023-02-01T03:34:49;17.08;;;6.82;;
51048;SDS011;37084;55.228;36.450;2023-02-01T03:37:52;19.08;;;8.70;;
51048;SDS011;37084;55.228;36.450;2023-02-01T03:41:07;16.30;;;7.75;;
51048;SDS011;37084;55.228;36.450;2023-02-01T03:44:17;17.40;;;7.80;;
51048;SDS011;37084;55.228;36.450;2023-02-01T03:47:29;24.38;;;8.43;;
51048;SDS011;37084;55.228;36.450;2023-02-01T03:50:36;16.33;;;7.45;;
51048;SDS011;37084;55.228;36.450;2023-02-01T03:53:47;16.85;;;8.00;;
51048;SDS011;37084;55.228;36.450;2023-02-01T03:56:51;22.60;;;9.13;;
51048;SDS011;37084;55.228;36.450;2023-02-01T03:59:53;21.15;;;8.02;;
51048;SDS011;37084;55.228;36.450;2023-02-01T04:02:55;19.05;;;8.80;;
51048;SDS011;37084;55.228;36.450;2023-02-01T04:05:58;20.08;;;8.35;;
51048;SDS011;37084;55.228;36.450;2023-02-01T04:09:02;22.48;;;8.70;;
51048;SDS011;37084;55.228;36.450;2023-02-01T04:12:03;20.02;;;8.75;;
51048;SDS011;37084;55.228;36.450;2023-02-01T04:15:05;18.65;;;8.35;;
51048;SDS011;37084;55.228;36.450;2023-02-01T04:18:06;20.50;;;8.88;;
51048;SDS011;37084;55.228;36.450;2023-02-01T04:21:08;21.77;;;8.70;;
51048;SDS011;37084;55.228;36.450;2023-02-01T04:24:09;18.98;;;7.85;;
51048;SDS011;37084;55.228;36.450;2023-02-01T04:27:18;19.35;;;9.45;;
51048;SDS011;37084;55.228;36.450;2023-02-01T04:30:19;22.77;;;8.18;;
51048;SDS011;37084;55.228;36.450;2023-02-01T04:33:20;22.55;;;8.63;;
51048;SDS011;37084;55.228;36.450;2023-02-01T04:36:28;19.80;;;8.60;;
51048;SDS011;37084;55.228;36.450;2023-02-01T04:39:29;25.20;;;9.57;;
51048;SDS011;37084;55.228;36.450;2023-02-01T04:42:31;23.85;;;9.25;;
51048;SDS011;37084;55.228;36.450;2023-02-01T04:48:37;26.02;;;9.30;;
51048;SDS011;37084;55.228;36.450;2023-02-01T04:51:38;20.73;;;8.80;;
51048;SDS011;37084;55.228;36.450;2023-02-01T04:54:40;27.80;;;9.90;;
51048;SDS011;37084;55.228;36.450;2023-02-01T05:03:50;22.83;;;9.63;;
51048;SDS011;37084;55.228;36.450;2023-02-01T05:06:53;18.10;;;8.00;;
51048;SDS011;37084;55.228;36.450;2023-02-01T05:09:55;22.50;;;9.48;;
51048;SDS011;37084;55.228;36.450;2023-02-01T05:12:56;20.30;;;9.05;;
51048;SDS011;37084;55.228;36.450;2023-02-01T05:16:16;23.05;;;10.45;;
51048;SDS011;37084;55.228;36.450;2023-02-01T05:19:18;21.27;;;8.20;;
51048;SDS011;37084;55.228;36.450;2023-02-01T05:22:21;26.30;;;10.13;;
51048;SDS011;37084;55.228;36.450;2023-02-01T05:25:23;21.15;;;8.88;;
51048;SDS011;37084;55.228;36.450;2023-02-01T05:28:24;28.70;;;11.23;;
51048;SDS011;37084;55.228;36.450;2023-02-01T05:31:26;27.20;;;8.82;;
51048;SDS011;37084;55.228;36.450;2023-02-01T05:34:28;26.65;;;9.32;;
51048;SDS011;37084;55.228;36.450;2023-02-01T05:41:24;16.27;;;7.55;;
51048;SDS011;37084;55.228;36.450;2023-02-01T05:51:24;24.77;;;9.43;;
51048;SDS011;37084;55.228;36.450;2023-02-01T05:54:26;23.50;;;9.23;;
51048;SDS011;37084;55.228;36.450;2023-02-01T05:57:32;29.58;;;10.45;;
51048;SDS011;37084;55.228;36.450;2023-02-01T06:00:34;25.45;;;9.57;;
51048;SDS011;37084;55.228;36.450;2023-02-01T06:03:36;23.73;;;9.38;;
51048;SDS011;37084;55.228;36.450;2023-02-01T06:06:41;36.40;;;11.70;;
51048;SDS011;37084;55.228;36.450;2023-02-01T06:09:43;26.05;;;9.57;;
51048;SDS011;37084;55.228;36.450;2023-02-01T06:12:44;29.08;;;12.13;;
51048;SDS011;37084;55.228;36.450;2023-02-01T06:15:46;28.65;;;10.60;;
51048;SDS011;37084;55.228;36.450;2023-02-01T06:18:48;26.77;;;9.63;;
51048;SDS011;37084;55.228;36.450;2023-02-01T06:21:50;24.95;;;10.77;;
51048;SDS011;37084;55.228;36.450;2023-02-01T06:24:52;26.40;;;8.55;;
51048;SDS011;37084;55.228;36.450;2023-02-01T06:27:54;25.52;;;9.23;;
51048;SDS011;37084;55.228;36.450;2023-02-01T06:30:56;27.77;;;11.02;;
51048;SDS011;37084;55.228;36.450;2023-02-01T06:33:59;25.90;;;10.63;;
51048;SDS011;37084;55.228;36.450;2023-02-01T06:37:03;25.38;;;9.30;;
51048;SDS011;37084;55.228;36.450;2023-02-01T06:40:08;20.15;;;9.68;;
51048;SDS011;37084;55.228;36.450;2023-02-01T06:43:10;29.13;;;11.15;;
51048;SDS011;37084;55.228;36.450;2023-02-01T06:46:12;28.45;;;11.60;;
51048;SDS011;37084;55.228;36.450;2023-02-01T06:49:14;20.25;;;8.05;;
51048;SDS011;37084;55.228;36.450;2023-02-01T06:52:15;26.92;;;10.32;;
51048;SDS011;37084;55.228;36.450;2023-02-01T06:55:17;27.73;;;11.13;;
51048;SDS011;37084;55.228;36.450;2023-02-01T06:58:20;29.50;;;11.65;;
51048;SDS011;37084;55.228;36.450;2023-02-01T07:01:22;26.27;;;11.35;;
51048;SDS011;37084;55.228;36.450;2023-02-01T07:04:23;23.63;;;8.77;;
51048;SDS011;37084;55.228;36.450;2023-02-01T07:07:26;28.15;;;11.43;;
51048;SDS011;37084;55.228;36.450;2023-02-01T07:10:27;34.30;;;10.25;;
51048;SDS011;37084;55.228;36.450;2023-02-01T07:13:29;38.38;;;14.50;;
51048;SDS011;37084;55.228;36.450;2023-02-01T07:16:37;32.63;;;12.05;;
51048;SDS011;37084;55.228;36.450;2023-02-01T07:19:39;28.45;;;9.80;;
51048;SDS011;37084;55.228;36.450;2023-02-01T07:22:41;27.50;;;10.25;;
51048;SDS011;37084;55.228;36.450;2023-02-01T07:25:42;23.65;;;10.15;;
51048;SDS011;37084;55.228;36.450;2023-02-01T07:28:45;28.52;;;10.75;;
51048;SDS011;37084;55.228;36.450;2023-02-01T07:31:47;28.33;;;10.13;;
51048;SDS011;37084;55.228;36.450;2023-02-01T07:34:49;34.30;;;12.68;;
51048;SDS011;37084;55.228;36.450;2023-02-01T07:37:53;22.15;;;9.15;;
51048;SDS011;37084;55.228;36.450;2023-02-01T07:40:58;32.08;;;11.57;;
51048;SDS011;37084;55.228;36.450;2023-02-01T07:44:03;35.50;;;13.27;;
51048;SDS011;37084;55.228;36.450;2023-02-01T07:47:06;29.58;;;11.73;;
51048;SDS011;37084;55.228;36.450;2023-02-01T07:50:07;29.60;;;10.52;;
51048;SDS011;37084;55.228;36.450;2023-02-01T07:53:09;25.23;;;11.25;;
51048;SDS011;37084;55.228;36.450;2023-02-01T07:56:12;26.80;;;11.60;;
51048;SDS011;37084;55.228;36.450;2023-02-01T07:59:14;36.85;;;13.07;;
51048;SDS011;37084;55.228;36.450;2023-02-01T08:02:16;31.10;;;12.07;;
51048;SDS011;37084;55.228;36.450;2023-02-01T08:05:18;29.20;;;12.25;;
51048;SDS011;37084;55.228;36.450;2023-02-01T08:08:21;31.13;;;11.02;;
51048;SDS011;37084;55.228;36.450;2023-02-01T08:11:23;26.95;;;10.07;;
51048;SDS011;37084;55.228;36.450;2023-02-01T08:14:26;27.63;;;11.38;;
51048;SDS011;37084;55.228;36.450;2023-02-01T08:17:28;20.70;;;8.88;;
51048;SDS011;37084;55.228;36.450;2023-02-01T08:21:08;22.65;;;10.00;;
51048;SDS011;37084;55.228;36.450;2023-02-01T08:24:14;27.75;;;10.88;;
51048;SDS011;37084;55.228;36.450;2023-02-01T08:31:10;21.05;;;8.68;;
51048;SDS011;37084;55.228;36.450;2023-02-01T08:34:12;21.80;;;9.43;;
51048;SDS011;37084;55.228;36.450;2023-02-01T08:37:19;21.48;;;9.95;;
51048;SDS011;37084;55.228;36.450;2023-02-01T08:40:20;16.90;;;8.13;;
51048;SDS011;37084;55.228;36.450;2023-02-01T08:43:22;20.63;;;10.68;;
51048;SDS011;37084;55.228;36.450;2023-02-01T08:46:24;23.30;;;10.88;;
51048;SDS011;37084;55.228;36.450;2023-02-01T08:49:25;21.23;;;9.90;;
51048;SDS011;37084;55.228;36.450;2023-02-01T08:52:27;20.77;;;10.60;;
51048;SDS011;37084;55.228;36.450;2023-02-01T08:55:28;23.02;;;11.02;;
51048;SDS011;37084;55.228;36.450;2023-02-01T08:58:30;19.48;;;10.32;;
51048;SDS011;37084;55.228;36.450;2023-02-01T09:01:31;19.00;;;8.05;;
51048;SDS011;37084;55.228;36.450;2023-02-01T09:04:33;20.92;;;9.70;;
51048;SDS011;37084;55.228;36.450;2023-02-01T09:11:04;16.67;;;9.30;;
51048;SDS011;37084;55.228;36.450;2023-02-01T09:14:26;18.55;;;7.30;;
51048;SDS011;37084;55.228;36.450;2023-02-01T09:21:26;17.67;;;6.88;;
51048;SDS011;37084;55.228;36.450;2023-02-01T09:24:28;17.02;;;7.50;;
51048;SDS011;37084;55.228;36.450;2023-02-01T09:30:56;18.02;;;7.65;;
51048;SDS011;37084;55.228;36.450;2023-02-01T09:34:01;17.50;;;6.70;;
51048;SDS011;37084;55.228;36.450;2023-02-01T09:37:03;17.83;;;7.63;;
51048;SDS011;37084;55.228;36.450;2023-02-01T09:43:40;14.55;;;6.13;;
51048;SDS011;37084;55.228;36.450;2023-02-01T09:46:46;21.30;;;8.57;;
51048;SDS011;37084;55.228;36.450;2023-02-01T09:56:36;12.02;;;5.97;;
51048;SDS011;37084;55.228;36.450;2023-02-01T09:59:44;16.90;;;7.63;;
51048;SDS011;37084;55.228;36.450;2023-02-01T10:02:47;16.10;;;6.45;;
51048;SDS011;37084;55.228;36.450;2023-02-01T10:16:51;13.85;;;6.38;;
51048;SDS011;37084;55.228;36.450;2023-02-01T10:24:15;13.40;;;7.85;;
51048;SDS011;37084;55.228;36.450;2023-02-01T10:27:22;15.60;;;5.63;;
51048;SDS011;37084;55.228;36.450;2023-02-01T10:30:25;14.10;;;6.63;;
51048;SDS011;37084;55.228;36.450;2023-02-01T10:33:35;16.33;;;6.93;;
51048;SDS011;37084;55.228;36.450;2023-02-01T10:36:46;18.17;;;8.32;;
51048;SDS011;37084;55.228;36.450;2023-02-01T10:39:56;14.25;;;6.15;;
51048;SDS011;37084;55.228;36.450;2023-02-01T10:43:00;15.40;;;5.70;;
51048;SDS011;37084;55.228;36.450;2023-02-01T10:46:02;14.38;;;6.18;;
51048;SDS011;37084;55.228;36.450;2023-02-01T10:49:04;14.75;;;6.97;;
51048;SDS011;37084;55.228;36.450;2023-02-01T10:52:16;16.73;;;7.45;;
51048;SDS011;37084;55.228;36.450;2023-02-01T11:02:15;13.10;;;5.10;;
51048;SDS011;37084;55.228;36.450;2023-02-01T11:05:33;13.50;;;5.80;;
51048;SDS011;37084;55.228;36.450;2023-02-01T11:12:38;13.68;;;5.90;;
51048;SDS011;37084;55.228;36.450;2023-02-01T11:15:42;11.75;;;5.72;;
51048;SDS011;37084;55.228;36.450;2023-02-01T11:18:46;16.45;;;6.57;;
51048;SDS011;37084;55.228;36.450;2023-02-01T11:21:55;12.40;;;5.50;;
51048;SDS011;37084;55.228;36.450;2023-02-01T11:25:01;15.57;;;6.53;;
51048;SDS011;37084;55.228;36.450;2023-02-01T11:28:03;17.83;;;6.32;;
51048;SDS011;37084;55.228;36.450;2023-02-01T11:34:34;15.75;;;6.82;;
51048;SDS011;37084;55.228;36.450;2023-02-01T11:37:44;13.27;;;5.63;;
51048;SDS011;37084;55.228;36.450;2023-02-01T11:40:53;15.45;;;6.55;;
51048;SDS011;37084;55.228;36.450;2023-02-01T11:43:56;15.63;;;6.43;;
51048;SDS011;37084;55.228;36.450;2023-02-01T12:14:25;17.92;;;7.60;;
51048;SDS011;37084;55.228;36.450;2023-02-01T12:18:00;16.95;;;7.35;;
51048;SDS011;37084;55.228;36.450;2023-02-01T12:32:20;17.80;;;7.63;;
51048;SDS011;37084;55.228;36.450;2023-02-01T12:42:19;16.70;;;6.68;;
51048;SDS011;37084;55.228;36.450;2023-02-01T12:45:35;16.92;;;7.43;;
51048;SDS011;37084;55.228;36.450;2023-02-01T12:49:05;18.05;;;8.48;;
51048;SDS011;37084;55.228;36.450;2023-02-01T12:52:10;19.13;;;7.65;;
51048;SDS011;37084;55.228;36.450;2023-02-01T12:55:19;16.08;;;6.78;;
51048;SDS011;37084;55.228;36.450;2023-02-01T12:58:42;14.85;;;6.00;;
51048;SDS011;37084;55.228;36.450;2023-02-01T13:01:52;11.40;;;4.90;;
51048;SDS011;37084;55.228;36.450;2023-02-01T13:05:02;9.15;;;4.80;;
51048;SDS011;37084;55.228;36.450;2023-02-01T13:08:11;21.10;;;6.45;;
51048;SDS011;37084;55.228;36.450;2023-02-01T13:14:45;14.40;;;6.18;;
51048;SDS011;37084;55.228;36.450;2023-02-01T13:17:51;18.65;;;7.47;;
51048;SDS011;37084;55.228;36.450;2023-02-01T13:21:05;18.40;;;7.35;;
51048;SDS011;37084;55.228;36.450;2023-02-01T13:24:16;16.98;;;7.35;;
51048;SDS011;37084;55.228;36.450;2023-02-01T13:43:42;15.02;;;6.43;;
51048;SDS011;37084;55.228;36.450;2023-02-01T13:46:46;18.20;;;6.82;;
51048;SDS011;37084;55.228;36.450;2023-02-01T13:49:51;18.58;;;6.93;;
51048;SDS011;37084;55.228;36.450;2023-02-01T13:52:57;16.77;;;7.07;;
51048;SDS011;37084;55.228;36.450;2023-02-01T13:56:16;16.95;;;6.90;;
51048;SDS011;37084;55.228;36.450;2023-02-01T14:09:05;16.85;;;6.35;;
51048;SDS011;37084;55.228;36.450;2023-02-01T14:19:07;19.38;;;7.40;;
51048;SDS011;37084;55.228;36.450;2023-02-01T14:25:21;17.80;;;6.20;;
51048;SDS011;37084;55.228;36.450;2023-02-01T14:28:24;21.92;;;7.95;;
51048;SDS011;37084;55.228;36.450;2023-02-01T14:31:37;22.33;;;8.18;;
51048;SDS011;37084;55.228;36.450;2023-02-01T14:34:49;22.65;;;9.18;;
51048;SDS011;37084;55.228;36.450;2023-02-01T14:37:54;19.70;;;8.32;;
51048;SDS011;37084;55.228;36.450;2023-02-01T14:41:17;24.08;;;7.78;;
51048;SDS011;37084;55.228;36.450;2023-02-01T14:44:29;22.90;;;9.13;;
51048;SDS011;37084;55.228;36.450;2023-02-01T14:47:32;21.42;;;7.78;;
51048;SDS011;37084;55.228;36.450;2023-02-01T14:50:36;18.83;;;7.18;;
51048;SDS011;37084;55.228;36.450;2023-02-01T14:53:41;27.17;;;9.52;;
51048;SDS011;37084;55.228;36.450;2023-02-01T14:56:44;26.60;;;9.95;;
51048;SDS011;37084;55.228;36.450;2023-02-01T14:59:46;21.08;;;7.65;;
51048;SDS011;37084;55.228;36.450;2023-02-01T15:09:43;22.08;;;8.80;;
51048;SDS011;37084;55.228;36.450;2023-02-01T15:12:46;15.60;;;6.63;;
51048;SDS011;37084;55.228;36.450;2023-02-01T15:19:07;26.02;;;9.63;;
51048;SDS011;37084;55.228;36.450;2023-02-01T15:22:13;25.40;;;9.98;;
51048;SDS011;37084;55.228;36.450;2023-02-01T15:25:20;19.98;;;8.45;;
51048;SDS011;37084;55.228;36.450;2023-02-01T15:28:26;23.42;;;8.00;;
51048;SDS011;37084;55.228;36.450;2023-02-01T15:34:57;18.80;;;7.90;;
51048;SDS011;37084;55.228;36.450;2023-02-01T15:41:37;25.20;;;8.82;;
51048;SDS011;37084;55.228;36.450;2023-02-01T15:44:44;23.58;;;9.27;;
51048;SDS011;37084;55.228;36.450;2023-02-01T15:47:47;27.38;;;9.27;;
51048;SDS011;37084;55.228;36.450;2023-02-01T15:54:46;24.92;;;9.07;;
51048;SDS011;37084;55.228;36.450;2023-02-01T15:57:47;20.00;;;7.95;;
51048;SDS011;37084;55.228;36.450;2023-02-01T16:04:19;23.42;;;8.80;;
51048;SDS011;37084;55.228;36.450;2023-02-01T16:07:27;21.80;;;8.35;;
51048;SDS011;37084;55.228;36.450;2023-02-01T16:10:31;23.10;;;8.80;;
51048;SDS011;37084;55.228;36.450;2023-02-01T16:13:33;22.25;;;8.18;;
51048;SDS011;37084;55.228;36.450;2023-02-01T16:16:38;19.42;;;8.48;;
51048;SDS011;37084;55.228;36.450;2023-02-01T16:19:40;23.58;;;8.10;;
51048;SDS011;37084;55.228;36.450;2023-02-01T16:22:42;19.60;;;7.93;;
51048;SDS011;37084;55.228;36.450;2023-02-01T16:25:46;20.42;;;7.57;;
51048;SDS011;37084;55.228;36.450;2023-02-01T16:28:48;21.88;;;8.18;;
51048;SDS011;37084;55.228;36.450;2023-02-01T16:31:57;24.77;;;9.25;;
51048;SDS011;37084;55.228;36.450;2023-02-01T16:34:59;20.17;;;8.70;;
51048;SDS011;37084;55.228;36.450;2023-02-01T16:45:37;21.70;;;7.30;;
51048;SDS011;37084;55.228;36.450;2023-02-01T16:48:42;23.70;;;7.53;;
51048;SDS011;37084;55.228;36.450;2023-02-01T16:55:59;21.98;;;7.93;;
51048;SDS011;37084;55.228;36.450;2023-02-01T16:59:01;23.77;;;7.90;;
51048;SDS011;37084;55.228;36.450;2023-02-01T17:05:24;19.77;;;7.90;;
51048;SDS011;37084;55.228;36.450;2023-02-01T17:08:34;20.90;;;8.80;;
51048;SDS011;37084;55.228;36.450;2023-02-01T17:11:43;22.67;;;8.73;;
51048;SDS011;37084;55.228;36.450;2023-02-01T17:14:48;19.65;;;8.27;;
51048;SDS011;37084;55.228;36.450;2023-02-01T17:17:51;18.45;;;7.07;;
51048;SDS011;37084;55.228;36.450;2023-02-01T17:20:56;22.35;;;7.60;;
51048;SDS011;37084;55.228;36.450;2023-02-01T17:23:59;20.15;;;7.93;;
51048;SDS011;37084;55.228;36.450;2023-02-01T17:27:02;25.63;;;8.43;;
51048;SDS011;37084;55.228;36.450;2023-02-01T17:30:12;20.38;;;7.47;;
51048;SDS011;37084;55.228;36.450;2023-02-01T17:40:23;22.73;;;8.60;;
51048;SDS011;37084;55.228;36.450;2023-02-01T17:58:10;21.98;;;7.65;;
51048;SDS011;37084;55.228;36.450;2023-02-01T18:26:41;19.98;;;6.78;;
51048;SDS011;37084;55.228;36.450;2023-02-01T18:33:16;16.27;;;6.55;;
51048;SDS011;37084;55.228;36.450;2023-02-01T18:36:18;17.80;;;7.72;;
51048;SDS011;37084;55.228;36.450;2023-02-01T18:39:24;19.42;;;7.30;;
51048;SDS011;37084;55.228;36.450;2023-02-01T18:42:27;16.80;;;7.25;;
51048;SDS011;37084;55.228;36.450;2023-02-01T18:45:39;16.98;;;6.30;;
51048;SDS011;37084;55.228;36.450;2023-02-01T18:56:18;19.70;;;7.63;;
51048;SDS011;37084;55.228;36.450;2023-02-01T18:59:19;22.52;;;8.15;;
51048;SDS011;37084;55.228;36.450;2023-02-01T19:02:29;22.40;;;8.07;;
51048;SDS011;37084;55.228;36.450;2023-02-01T19:05:31;24.40;;;9.65;;
51048;SDS011;37084;55.228;36.450;2023-02-01T19:08:33;20.90;;;7.30;;
51048;SDS011;37084;55.228;36.450;2023-02-01T19:11:35;20.00;;;8.13;;
51048;SDS011;37084;55.228;36.450;2023-02-01T19:18:13;18.45;;;7.22;;
51048;SDS011;37084;55.228;36.450;2023-02-01T19:21:20;18.02;;;5.80;;
51048;SDS011;37084;55.228;36.450;2023-02-01T19:24:25;23.77;;;7.72;;
51048;SDS011;37084;55.228;36.450;2023-02-01T19:27:28;21.15;;;8.13;;
51048;SDS011;37084;55.228;36.450;2023-02-01T19:30:31;20.63;;;7.07;;
51048;SDS011;37084;55.228;36.450;2023-02-01T19:33:33;25.05;;;8.38;;
51048;SDS011;37084;55.228;36.450;2023-02-01T19:36:35;13.43;;;6.88;;
51048;SDS011;37084;55.228;36.450;2023-02-01T19:39:42;15.32;;;6.75;;
51048;SDS011;37084;55.228;36.450;2023-02-01T19:42:46;17.90;;;6.80;;
51048;SDS011;37084;55.228;36.450;2023-02-01T19:45:48;20.48;;;7.18;;
51048;SDS011;37084;55.228;36.450;2023-02-01T19:48:49;19.15;;;6.60;;
51048;SDS011;37084;55.228;36.450;2023-02-01T19:56:26;19.50;;;7.88;;
51048;SDS011;37084;55.228;36.450;2023-02-01T19:59:29;18.50;;;7.55;;
51048;SDS011;37084;55.228;36.450;2023-02-01T20:02:33;19.10;;;7.57;;
51048;SDS011;37084;55.228;36.450;2023-02-01T20:05:34;18.73;;;7.82;;
51048;SDS011;37084;55.228;36.450;2023-02-01T20:08:36;21.45;;;8.40;;
51048;SDS011;37084;55.228;36.450;2023-02-01T20:11:38;22.52;;;9.40;;
51048;SDS011;37084;55.228;36.450;2023-02-01T20:14:40;18.88;;;7.53;;
51048;SDS011;37084;55.228;36.450;2023-02-01T20:17:42;18.85;;;7.72;;
51048;SDS011;37084;55.228;36.450;2023-02-01T20:20:44;19.90;;;7.90;;
51048;SDS011;37084;55.228;36.450;2023-02-01T20:23:53;17.10;;;6.70;;
51048;SDS011;37084;55.228;36.450;2023-02-01T20:26:55;20.08;;;7.95;;
51048;SDS011;37084;55.228;36.450;2023-02-01T20:29:57;20.38;;;7.10;;
51048;SDS011;37084;55.228;36.450;2023-02-01T20:33:00;21.25;;;7.60;;
51048;SDS011;37084;55.228;36.450;2023-02-01T20:36:02;18.23;;;7.78;;
51048;SDS011;37084;55.228;36.450;2023-02-01T20:39:04;17.55;;;6.65;;
51048;SDS011;37084;55.228;36.450;2023-02-01T20:42:05;20.02;;;8.18;;
51048;SDS011;37084;55.228;36.450;2023-02-01T20:45:07;18.33;;;7.18;;
51048;SDS011;37084;55.228;36.450;2023-02-01T20:48:09;18.23;;;7.53;;
51048;SDS011;37084;55.228;36.450;2023-02-01T20:51:12;15.90;;;5.40;;
51048;SDS011;37084;55.228;36.450;2023-02-01T20:54:15;19.00;;;6.55;;
51048;SDS011;37084;55.228;36.450;2023-02-01T20:57:16;22.40;;;9.00;;
51048;SDS011;37084;55.228;36.450;2023-02-01T21:00:18;17.90;;;6.05;;
51048;SDS011;37084;55.228;36.450;2023-02-01T21:03:22;21.70;;;6.22;;
51048;SDS011;37084;55.228;36.450;2023-02-01T21:06:24;19.08;;;7.13;;
51048;SDS011;37084;55.228;36.450;2023-02-01T21:09:25;21.17;;;7.57;;
51048;SDS011;37084;55.228;36.450;2023-02-01T21:12:30;16.17;;;6.72;;
51048;SDS011;37084;55.228;36.450;2023-02-01T21:15:36;15.48;;;5.57;;
51048;SDS011;37084;55.228;36.450;2023-02-01T21:18:38;19.52;;;7.57;;
51048;SDS011;37084;55.228;36.450;2023-02-01T21:21:40;21.13;;;7.63;;
51048;SDS011;37084;55.228;36.450;2023-02-01T21:27:48;22.08;;;7.40;;
51048;SDS011;37084;55.228;36.450;2023-02-01T21:30:50;22.63;;;8.40;;
51048;SDS011;37084;55.228;36.450;2023-02-01T21:33:52;23.58;;;8.45;;
51048;SDS011;37084;55.228;36.450;2023-02-01T21:36:54;22.63;;;7.93;;
51048;SDS011;37084;55.228;36.450;2023-02-01T21:39:56;25.58;;;9.60;;
51048;SDS011;37084;55.228;36.450;2023-02-01T21:42:57;22.13;;;8.20;;
51048;SDS011;37084;55.228;36.450;2023-02-01T21:46:06;22.90;;;7.65;;
51048;SDS011;37084;55.228;36.450;2023-02-01T21:49:08;26.48;;;8.15;;
51048;SDS011;37084;55.228;36.450;2023-02-01T21:52:12;21.80;;;8.73;;
51048;SDS011;37084;55.228;36.450;2023-02-01T21:58:41;21.50;;;8.82;;
51048;SDS011;37084;55.228;36.450;2023-02-01T22:01:42;21.88;;;7.95;;
51048;SDS011;37084;55.228;36.450;2023-02-01T22:08:10;19.55;;;8.35;;
51048;SDS011;37084;55.228;36.450;2023-02-01T22:11:12;23.27;;;8.18;;
51048;SDS011;37084;55.228;36.450;2023-02-01T22:17:33;24.33;;;8.82;;
51048;SDS011;37084;55.228;36.450;2023-02-01T22:20:36;20.70;;;8.05;;
51048;SDS011;37084;55.228;36.450;2023-02-01T22:28:07;20.25;;;7.78;;
51048;SDS011;37084;55.228;36.450;2023-02-01T22:31:09;25.88;;;9.07;;
51048;SDS011;37084;55.228;36.450;2023-02-01T22:37:39;21.35;;;7.97;;
51048;SDS011;37084;55.228;36.450;2023-02-01T22:40:42;20.85;;;7.05;;
51048;SDS011;37084;55.228;36.450;2023-02-01T22:43:43;23.02;;;8.05;;
51048;SDS011;37084;55.228;36.450;2023-02-01T22:46:45;21.35;;;8.00;;
51048;SDS011;37084;55.228;36.450;2023-02-01T22:49:47;21.77;;;7.47;;
51048;SDS011;37084;55.228;36.450;2023-02-01T22:52:53;16.23;;;6.35;;
51048;SDS011;37084;55.228;36.450;2023-02-01T22:56:01;17.00;;;6.68;;
51048;SDS011;37084;55.228;36.450;2023-02-01T22:59:05;17.88;;;6.88;;
51048;SDS011;37084;55.228;36.450;2023-02-01T23:02:08;18.20;;;7.43;;
51048;SDS011;37084;55.228;36.450;2023-02-01T23:05:10;17.27;;;6.72;;
51048;SDS011;37084;55.228;36.450;2023-02-01T23:08:11;15.40;;;6.38;;
51048;SDS011;37084;55.228;36.450;2023-02-01T23:11:13;20.90;;;7.13;;